createdAt,value
2018-05-23T00:02:08.233Z,101616.96
2018-05-23T00:04:36.354Z,101614.35
2018-05-23T00:07:04.556Z,101619.78
2018-05-23T00:09:32.624Z,101621.22
2018-05-23T00:12:00.761Z,101611.78
2018-05-23T00:14:29.656Z,101613.82
2018-05-23T00:16:57.749Z,101617.07
2018-05-23T00:19:25.860Z,101610.48
2018-05-23T00:21:53.939Z,101607.92
2018-05-23T00:24:22.035Z,101599.85
2018-05-23T00:26:50.168Z,101606.67
2018-05-23T00:29:18.267Z,101610.58
2018-05-23T00:31:46.370Z,101615.32
2018-05-23T00:34:14.493Z,101614.37
2018-05-23T00:36:42.585Z,101610.43
2018-05-23T00:39:10.682Z,101611.02
2018-05-23T00:41:38.908Z,101608.98
2018-05-23T00:44:06.935Z,101614.59
2018-05-23T00:46:35.024Z,101622.02
2018-05-23T00:49:03.147Z,101625.17
2018-05-23T00:51:31.250Z,101628.41
2018-05-23T00:53:59.348Z,101637.78
2018-05-23T00:56:27.463Z,101646.38
2018-05-23T00:59:01.530Z,101651.02
2018-05-23T01:01:29.680Z,101662.10
2018-05-23T01:03:58.008Z,101653.73
2018-05-23T01:06:26.566Z,101655.90
2018-05-23T01:08:55.405Z,101658.33
2018-05-23T01:11:23.540Z,101660.66
2018-05-23T01:13:52.132Z,101659.43
2018-05-23T01:16:20.258Z,101671.27
2018-05-23T01:18:48.364Z,101670.56
2018-05-23T01:21:16.473Z,101676.61
2018-05-23T01:23:44.600Z,101675.98
2018-05-23T01:26:12.734Z,101674.63
2018-05-23T01:28:41.251Z,101675.29
2018-05-23T01:31:09.377Z,101685.87
2018-05-23T01:33:37.483Z,101683.50
2018-05-23T01:36:06.084Z,101691.97
2018-05-23T01:38:34.204Z,101696.72
2018-05-23T01:41:03.071Z,101695.58
2018-05-23T01:43:31.176Z,101693.14
2018-05-23T01:45:59.304Z,101694.85
2018-05-23T01:48:27.458Z,101695.56
2018-05-23T01:50:56.104Z,101705.17
2018-05-23T01:53:24.210Z,101703.84
2018-05-23T01:55:52.308Z,101718.44
2018-05-23T01:58:20.427Z,101706.21
2018-05-23T02:00:48.562Z,101708.56
2018-05-23T02:03:16.667Z,101715.28
2018-05-23T02:05:44.788Z,101717.83
2018-05-23T02:08:12.938Z,101719.25
2018-05-23T02:10:41.068Z,101723.54
2018-05-23T02:13:09.165Z,101721.42
2018-05-23T02:15:37.287Z,101728.75
2018-05-23T02:18:05.454Z,101730.41
2018-05-23T02:20:33.557Z,101731.95
2018-05-23T02:23:01.657Z,101725.81
2018-05-23T02:25:29.786Z,101728.83
2018-05-23T02:27:57.885Z,101730.19
2018-05-23T02:30:26.614Z,101729.17
2018-05-23T02:32:54.761Z,101725.88
2018-05-23T02:35:22.947Z,101731.09
2018-05-23T02:37:51.042Z,101726.34
2018-05-23T02:40:19.185Z,101729.19
2018-05-23T02:42:47.328Z,101732.52
2018-05-23T02:45:15.421Z,101730.81
2018-05-23T02:47:43.534Z,101729.95
2018-05-23T02:50:12.132Z,101731.33
2018-05-23T02:52:40.269Z,101732.58
2018-05-23T02:55:08.383Z,101732.35
2018-05-23T02:57:36.496Z,101737.02
2018-05-23T03:00:04.602Z,101744.06
2018-05-23T03:02:32.711Z,101740.00
2018-05-23T03:05:00.888Z,101737.75
2018-05-23T03:07:29.007Z,101742.16
2018-05-23T03:09:57.160Z,101740.89
2018-05-23T03:12:25.291Z,101748.23
2018-05-23T03:14:53.399Z,101750.25
2018-05-23T03:17:21.506Z,101747.88
2018-05-23T03:19:49.629Z,101747.05
2018-05-23T03:22:17.735Z,101749.29
2018-05-23T03:24:45.835Z,101753.59
2018-05-23T03:27:14.002Z,101751.34
2018-05-23T03:29:42.132Z,101760.08
2018-05-23T03:32:10.948Z,101764.03
2018-05-23T03:34:39.052Z,101764.95
2018-05-23T03:37:07.638Z,101769.05
2018-05-23T03:39:35.760Z,101769.86
2018-05-23T03:42:03.870Z,101764.00
2018-05-23T03:44:31.983Z,101764.03
2018-05-23T03:47:00.344Z,101770.30
2018-05-23T03:49:28.436Z,101764.38
2018-05-23T03:51:56.536Z,101770.18
2018-05-23T03:54:24.660Z,101770.09
2018-05-23T03:56:52.750Z,101771.91
2018-05-23T04:02:36.921Z,101766.22
2018-05-23T04:08:07.332Z,101768.31
2018-05-23T04:10:35.441Z,101768.28
2018-05-23T04:13:03.544Z,101773.11
2018-05-23T04:15:32.714Z,101776.05
2018-05-23T04:18:00.739Z,101778.07
2018-05-23T04:20:28.857Z,101781.44
2018-05-23T04:22:56.980Z,101784.43
2018-05-23T04:25:25.101Z,101789.52
2018-05-23T04:27:53.206Z,101789.71
2018-05-23T04:30:21.330Z,101795.09
2018-05-23T04:32:50.361Z,101797.89
2018-05-23T04:35:18.476Z,101806.94
2018-05-23T04:37:46.570Z,101806.41
2018-05-23T04:40:14.684Z,101810.52
2018-05-23T04:42:42.781Z,101816.63
2018-05-23T04:45:10.891Z,101819.52
2018-05-23T04:47:40.009Z,101819.34
2018-05-23T04:50:13.719Z,101827.16
2018-05-23T04:52:41.847Z,101823.74
2018-05-23T04:55:10.321Z,101825.00
2018-05-23T05:10:39.398Z,101839.83
2018-05-23T05:13:07.541Z,101840.33
2018-05-23T05:15:35.659Z,101843.81
2018-05-23T05:18:03.800Z,101843.31
2018-05-23T05:20:37.376Z,101852.55
2018-05-23T05:23:05.489Z,101848.73
2018-05-23T05:25:33.589Z,101851.17
2018-05-23T05:28:01.715Z,101859.51
2018-05-23T05:30:29.856Z,101847.13
2018-05-23T05:32:57.961Z,101846.54
2018-05-23T05:35:26.293Z,101852.20
2018-05-23T05:37:54.425Z,101860.16
2018-05-23T05:40:22.584Z,101880.38
2018-05-23T05:42:56.357Z,101884.57
2018-05-23T05:45:30.037Z,101883.67
2018-05-23T05:47:58.155Z,101887.79
2018-05-23T05:50:26.589Z,101890.08
2018-05-23T05:52:54.661Z,101898.43
2018-05-23T05:55:23.057Z,101898.58
2018-05-23T05:57:51.156Z,101907.79
2018-05-23T06:00:19.256Z,101913.27
2018-05-23T06:02:47.804Z,101911.45
2018-05-23T06:05:15.919Z,101915.24
2018-05-23T06:07:44.589Z,101920.16
2018-05-23T06:10:13.737Z,101930.30
2018-05-23T06:12:41.853Z,101929.38
2018-05-23T06:15:09.988Z,101936.25
2018-05-23T06:17:38.112Z,101931.68
2018-05-23T06:20:06.214Z,101934.05
2018-05-23T06:22:34.321Z,101931.22
2018-05-23T06:25:02.433Z,101939.91
2018-05-23T06:27:31.603Z,101935.81
2018-05-23T06:30:00.289Z,101933.93
2018-05-23T06:32:28.874Z,101933.80
2018-05-23T06:34:56.977Z,101933.44
2018-05-23T06:37:25.078Z,101938.53
2018-05-23T06:39:53.213Z,101943.88
2018-05-23T06:42:21.373Z,101944.41
2018-05-23T06:44:49.477Z,101952.75
2018-05-23T06:47:18.102Z,101951.31
2018-05-23T06:49:46.800Z,101941.28
2018-05-23T06:52:14.917Z,101942.05
2018-05-23T06:54:43.701Z,101956.39
2018-05-23T06:57:11.821Z,101948.20
2018-05-23T06:59:39.939Z,101950.95
2018-05-23T07:02:08.045Z,101954.16
2018-05-23T07:04:36.784Z,101954.92
2018-05-23T07:07:04.889Z,101947.93
2018-05-23T07:09:32.993Z,101950.29
2018-05-23T07:12:01.109Z,101948.53
2018-05-23T07:14:29.233Z,101943.95
2018-05-23T07:16:57.376Z,101942.83
2018-05-23T07:19:25.567Z,101948.63
2018-05-23T07:21:53.633Z,101953.67
2018-05-23T07:24:21.769Z,101953.88
2018-05-23T07:26:50.263Z,101951.51
2018-05-23T07:29:18.353Z,101960.75
2018-05-23T07:31:46.577Z,101959.78
2018-05-23T07:34:14.586Z,101963.35
2018-05-23T07:36:42.691Z,101972.75
2018-05-23T07:39:11.797Z,101973.88
2018-05-23T07:41:39.904Z,101968.77
2018-05-23T07:44:08.799Z,101968.03
2018-05-23T07:46:36.970Z,101967.91
2018-05-23T07:49:05.007Z,101971.30
2018-05-23T07:51:33.861Z,101972.75
2018-05-23T07:54:02.000Z,101970.25
2018-05-23T07:56:30.308Z,101972.77
2018-05-23T07:58:58.423Z,101973.11
2018-05-23T08:01:27.005Z,101970.31
2018-05-23T08:03:55.894Z,101972.87
2018-05-23T08:06:24.001Z,101970.34
2018-05-23T08:08:52.127Z,101973.63
2018-05-23T08:11:20.339Z,101970.06
2018-05-23T08:13:49.258Z,101974.77
2018-05-23T08:16:17.354Z,101974.00
2018-05-23T08:18:45.468Z,101983.33
2018-05-23T08:21:19.277Z,101982.23
2018-05-23T08:23:47.364Z,101977.48
2018-05-23T08:26:15.464Z,101982.82
2018-05-23T08:28:43.591Z,101994.50
2018-05-23T08:31:11.696Z,101987.88
2018-05-23T08:33:39.820Z,101993.45
2018-05-23T08:36:07.946Z,101999.67
2018-05-23T08:38:36.095Z,101987.23
2018-05-23T08:41:04.247Z,101988.06
2018-05-23T08:43:32.332Z,101997.62
2018-05-23T08:46:00.469Z,101995.54
2018-05-23T08:48:29.497Z,101999.55
2018-05-23T08:50:57.625Z,102002.09
2018-05-23T08:53:26.346Z,102000.70
2018-05-23T08:55:55.191Z,101996.66
2018-05-23T08:58:23.306Z,102004.55
2018-05-23T09:00:57.091Z,102010.05
2018-05-23T09:03:31.113Z,102004.02
2018-05-23T09:06:04.758Z,102010.62
2018-05-23T09:08:32.892Z,102007.77
2018-05-23T09:11:00.992Z,102010.58
2018-05-23T09:13:29.428Z,102011.08
2018-05-23T09:15:58.172Z,102014.69
2018-05-23T09:18:26.265Z,102014.48
2018-05-23T09:20:54.663Z,102015.98
2018-05-23T09:23:23.699Z,102019.06
2018-05-23T09:25:51.828Z,102021.68
2018-05-23T09:28:19.922Z,102019.56
2018-05-23T09:30:48.095Z,102017.67
2018-05-23T09:33:17.181Z,102017.34
2018-05-23T09:35:45.345Z,102015.05
2018-05-23T09:38:13.461Z,102018.53
2018-05-23T09:40:41.705Z,102020.13
2018-05-23T09:43:09.863Z,102024.89
2018-05-23T09:45:37.949Z,102030.52
2018-05-23T09:48:06.047Z,102030.92
2018-05-23T09:50:34.157Z,102028.23
2018-05-23T09:53:02.308Z,102035.00
2018-05-23T09:55:30.435Z,102034.04
2018-05-23T09:57:59.385Z,102038.81
2018-05-23T10:00:32.439Z,102036.42
2018-05-23T10:03:00.583Z,102048.34
2018-05-23T10:05:28.664Z,102043.37
2018-05-23T10:07:56.775Z,102042.97
2018-05-23T10:10:24.889Z,102044.73
2018-05-23T10:12:52.992Z,102045.16
2018-05-23T10:15:21.135Z,102039.28
2018-05-23T10:17:49.323Z,102041.61
2018-05-23T10:20:17.415Z,102039.16
2018-05-23T10:22:45.537Z,102044.66
2018-05-23T10:25:13.640Z,102042.78
2018-05-23T10:27:41.744Z,102045.89
2018-05-23T10:30:10.092Z,102048.88
2018-05-23T10:32:38.169Z,102046.83
2018-05-23T10:35:06.276Z,102049.34
2018-05-23T10:37:34.400Z,102049.61
2018-05-23T10:40:02.837Z,102050.27
2018-05-23T10:42:30.955Z,102053.98
2018-05-23T10:44:59.066Z,102060.45
2018-05-23T10:47:27.171Z,102050.11
2018-05-23T10:50:00.945Z,102055.14
2018-05-23T10:52:29.354Z,102049.41
2018-05-23T10:54:57.452Z,102055.95
2018-05-23T10:57:25.552Z,102052.73
2018-05-23T10:59:53.673Z,102050.88
2018-05-23T11:02:21.755Z,102050.52
2018-05-23T11:04:50.189Z,102053.56
2018-05-23T11:07:18.318Z,102053.30
2018-05-23T11:09:46.416Z,102050.33
2018-05-23T11:12:15.146Z,102051.03
2018-05-23T11:14:43.586Z,102050.07
2018-05-23T11:17:11.609Z,102052.49
2018-05-23T11:19:39.760Z,102048.05
2018-05-23T11:22:07.874Z,102045.46
2018-05-23T11:24:35.956Z,102050.09
2018-05-23T11:27:04.168Z,102049.45
2018-05-23T11:29:32.273Z,102040.88
2018-05-23T11:32:00.377Z,102040.22
2018-05-23T11:34:28.790Z,102052.08
2018-05-23T11:36:56.901Z,102052.52
2018-05-23T11:39:25.002Z,102059.04
2018-05-23T11:41:58.756Z,102056.72
2018-05-23T11:44:27.644Z,102053.47
2018-05-23T11:46:55.756Z,102043.27
2018-05-23T11:49:23.860Z,102046.56
2018-05-23T11:51:52.936Z,102038.77
2018-05-23T11:54:21.044Z,102041.34
2018-05-23T11:56:49.492Z,102038.55
2018-05-23T11:59:17.616Z,102051.66
2018-05-23T12:01:45.744Z,102038.61
2018-05-23T12:04:13.869Z,102038.78
2018-05-23T12:06:41.970Z,102037.06
2018-05-23T12:09:10.142Z,102033.82
2018-05-23T12:11:38.256Z,102036.14
2018-05-23T12:14:06.410Z,102034.70
2018-05-23T12:16:35.210Z,102030.03
2018-05-23T12:19:03.330Z,102038.20
2018-05-23T12:21:31.438Z,102031.79
2018-05-23T12:23:59.541Z,102037.02
2018-05-23T12:26:27.672Z,102032.98
2018-05-23T12:28:56.585Z,102037.67
2018-05-23T12:31:24.700Z,102040.03
2018-05-23T12:33:53.292Z,102042.40
2018-05-23T12:36:21.436Z,102043.07
2018-05-23T12:38:49.600Z,102040.21
2018-05-23T12:41:17.698Z,102040.64
2018-05-23T12:43:45.806Z,102035.94
2018-05-23T12:46:13.912Z,102035.75
2018-05-23T12:48:42.020Z,102034.63
2018-05-23T12:51:10.114Z,102039.97
2018-05-23T12:53:38.236Z,102040.70
2018-05-23T12:56:06.354Z,102036.56
2018-05-23T12:58:34.469Z,102040.77
2018-05-23T13:01:02.920Z,102035.38
2018-05-23T13:03:31.135Z,102032.97
2018-05-23T13:05:59.683Z,102033.86
2018-05-23T13:08:27.841Z,102027.41
2018-05-23T13:10:55.956Z,102021.86
2018-05-23T13:13:24.055Z,102019.53
2018-05-23T13:15:52.276Z,102017.86
2018-05-23T13:18:20.370Z,102018.72
2018-05-23T13:20:48.481Z,102015.90
2018-05-23T13:23:16.596Z,102010.00
2018-05-23T13:25:44.701Z,102007.14
2018-05-23T13:28:13.450Z,102015.78
2018-05-23T13:30:41.569Z,102012.70
2018-05-23T13:33:10.232Z,102014.23
2018-05-23T13:48:44.113Z,101998.30
2018-05-23T13:51:17.790Z,101992.18
2018-05-23T13:53:45.930Z,101996.35
2018-05-23T13:56:14.800Z,101993.98
2018-05-23T13:58:42.930Z,101994.67
2018-05-23T14:01:11.072Z,101984.42
2018-05-23T14:03:39.200Z,101985.77
2018-05-23T14:06:07.309Z,101987.02
2018-05-23T14:08:35.444Z,101976.59
2018-05-23T14:11:03.592Z,101981.58
2018-05-23T14:13:31.762Z,101966.64
2018-05-23T14:15:59.874Z,101972.27
2018-05-23T14:18:28.013Z,101966.14
2018-05-23T14:20:56.094Z,101970.83
2018-05-23T14:23:24.216Z,101965.58
2018-05-23T14:25:52.378Z,101968.51
2018-05-23T14:28:20.528Z,101960.80
2018-05-23T14:30:48.616Z,101958.27
2018-05-23T14:33:16.737Z,101955.13
2018-05-23T14:35:44.931Z,101951.41
2018-05-23T14:38:13.320Z,101949.23
2018-05-23T14:40:42.236Z,101955.34
2018-05-23T14:43:10.341Z,101953.48
2018-05-23T14:45:38.437Z,101956.12
2018-05-23T14:48:06.543Z,101954.73
2018-05-23T14:50:34.655Z,101958.91
2018-05-23T14:53:02.827Z,101959.47
2018-05-23T14:55:30.947Z,101952.82
2018-05-23T14:57:59.378Z,101958.14
2018-05-23T15:00:27.496Z,101962.64
2018-05-23T15:02:55.608Z,101956.33
2018-05-23T15:05:23.715Z,101958.73
2018-05-23T15:07:51.825Z,101963.67
2018-05-23T15:10:19.957Z,101961.11
2018-05-23T15:12:48.077Z,101961.70
2018-05-23T15:15:16.180Z,101960.59
2018-05-23T15:17:44.296Z,101955.44
2018-05-23T15:20:12.494Z,101953.70
2018-05-23T15:22:41.188Z,101949.86
2018-05-23T15:25:09.633Z,101948.70
2018-05-23T15:27:38.386Z,101950.06
2018-05-23T15:30:06.490Z,101957.59
2018-05-23T15:32:34.603Z,101949.94
2018-05-23T15:35:02.758Z,101953.82
2018-05-23T15:37:30.876Z,101949.94
2018-05-23T15:39:58.987Z,101967.58
2018-05-23T15:42:27.100Z,101954.16
2018-05-23T15:44:55.196Z,101952.73
2018-05-23T15:47:24.268Z,101946.33
2018-05-23T15:49:52.390Z,101951.48
2018-05-23T15:52:20.493Z,101942.69
2018-05-23T15:54:48.629Z,101945.59
2018-05-23T15:57:17.201Z,101941.48
2018-05-23T15:59:46.047Z,101942.64
2018-05-23T16:02:14.190Z,101944.53
2018-05-23T16:04:42.312Z,101938.63
2018-05-23T16:07:10.428Z,101944.34
2018-05-23T16:09:38.612Z,101938.58
2018-05-23T16:12:06.742Z,101940.76
2018-05-23T16:14:34.858Z,101936.16
2018-05-23T16:17:08.645Z,101938.42
2018-05-23T16:19:36.751Z,101937.13
2018-05-23T16:22:04.857Z,101939.48
2018-05-23T16:24:33.115Z,101938.63
2018-05-23T16:27:01.210Z,101930.12
2018-05-23T16:29:35.160Z,101930.42
2018-05-23T16:32:03.276Z,101933.24
2018-05-23T16:34:31.428Z,101933.33
2018-05-23T16:36:59.509Z,101934.69
2018-05-23T16:39:28.268Z,101937.98
2018-05-23T16:41:56.915Z,101930.63
2018-05-23T16:44:25.126Z,101933.80
2018-05-23T16:46:53.136Z,101928.32
2018-05-23T16:49:21.285Z,101927.69
2018-05-23T16:51:49.718Z,101937.34
2018-05-23T16:54:17.858Z,101936.58
2018-05-23T16:56:45.957Z,101936.06
2018-05-23T16:59:14.061Z,101935.98
2018-05-23T17:01:42.201Z,101934.19
2018-05-23T17:04:10.700Z,101926.33
2018-05-23T17:06:38.809Z,101927.48
2018-05-23T17:09:07.579Z,101925.13
2018-05-23T17:11:35.698Z,101927.52
2018-05-23T17:14:03.821Z,101931.58
2018-05-23T17:16:31.952Z,101929.83
2018-05-23T17:19:00.064Z,101933.76
2018-05-23T17:21:28.173Z,101922.77
2018-05-23T17:23:56.321Z,101929.02
2018-05-23T17:26:25.414Z,101932.25
2018-05-23T17:28:53.526Z,101933.67
2018-05-23T17:31:21.649Z,101937.47
2018-05-23T17:33:49.744Z,101941.66
2018-05-23T17:36:17.865Z,101938.33
2018-05-23T17:38:45.974Z,101928.71
2018-05-23T17:41:19.630Z,101938.63
2018-05-23T17:43:47.772Z,101943.45
2018-05-23T17:46:15.869Z,101943.88
2018-05-23T18:01:44.015Z,101950.86
2018-05-23T18:04:12.413Z,101953.15
2018-05-23T18:06:40.538Z,101956.34
2018-05-23T18:09:08.638Z,101959.13
2018-05-23T18:11:36.876Z,101967.32
2018-05-23T18:14:05.002Z,101963.34
2018-05-23T18:16:33.140Z,101973.05
2018-05-23T18:19:01.270Z,101973.91
2018-05-23T18:21:29.371Z,101978.81
2018-05-23T18:23:57.500Z,101971.47
2018-05-23T18:26:25.688Z,101980.86
2018-05-23T18:28:53.788Z,101976.25
2018-05-23T18:31:21.896Z,101984.02
2018-05-23T18:33:50.029Z,101980.52
2018-05-23T18:36:18.450Z,101984.23
2018-05-23T18:38:46.564Z,101995.97
2018-05-23T18:41:14.688Z,101997.69
2018-05-23T18:43:42.819Z,101995.08
2018-05-23T18:46:10.932Z,101999.77
2018-05-23T18:48:39.044Z,102005.53
2018-05-23T18:51:07.157Z,102005.66
2018-05-23T18:53:35.273Z,102008.44
2018-05-23T18:56:03.365Z,102009.58
2018-05-23T18:58:31.481Z,102005.38
2018-05-23T19:01:00.082Z,102003.63
2018-05-23T19:03:28.173Z,102004.99
2018-05-23T19:05:56.289Z,102006.26
2018-05-23T19:08:24.383Z,102005.54
2018-05-23T19:10:52.536Z,102005.61
2018-05-23T19:13:20.641Z,102006.25
2018-05-23T19:28:53.855Z,102019.46
2018-05-23T19:31:27.413Z,102010.97
2018-05-23T19:33:55.777Z,102012.84
2018-05-23T19:36:23.918Z,102017.61
2018-05-23T19:38:52.032Z,102021.82
2018-05-23T19:54:20.161Z,102045.92
2018-05-23T19:56:48.259Z,102044.56
2018-05-23T19:59:16.462Z,102051.22
2018-05-23T20:01:44.578Z,102048.02
2018-05-23T20:04:12.700Z,102051.97
2018-05-23T20:06:40.802Z,102049.04
2018-05-23T20:09:09.690Z,102052.70
2018-05-23T20:11:37.785Z,102062.73
2018-05-23T20:14:05.976Z,102064.72
2018-05-23T20:16:34.026Z,102059.88
2018-05-23T20:19:02.153Z,102067.09
2018-05-23T20:21:30.309Z,102067.25
2018-05-23T20:23:58.481Z,102065.66
2018-05-23T20:26:26.552Z,102064.22
2018-05-23T20:28:55.582Z,102065.15
2018-05-23T20:31:24.440Z,102064.49
2018-05-23T20:33:53.319Z,102060.47
2018-05-23T20:36:21.454Z,102067.96
2018-05-23T20:38:49.540Z,102073.61
2018-05-23T20:41:17.644Z,102072.01
2018-05-23T20:43:46.921Z,102075.40
2018-05-23T20:46:15.061Z,102070.99
2018-05-23T20:48:43.191Z,102073.05
2018-05-23T20:51:11.312Z,102077.92
2018-05-23T20:53:39.409Z,102067.59
2018-05-23T20:56:07.498Z,102073.70
2018-05-23T20:58:35.746Z,102071.20
2018-05-23T21:01:04.145Z,102080.95
2018-05-23T21:03:32.957Z,102080.27
2018-05-23T21:06:01.081Z,102073.48
2018-05-23T21:08:29.686Z,102075.09
2018-05-23T21:10:58.150Z,102071.41
2018-05-23T21:13:26.251Z,102075.67
2018-05-23T21:15:54.340Z,102069.63
2018-05-23T21:18:23.077Z,102067.27
2018-05-23T21:20:51.174Z,102077.55
2018-05-23T21:23:20.320Z,102074.27
2018-05-23T21:25:48.433Z,102078.80
2018-05-23T21:28:16.895Z,102074.39
2018-05-23T21:30:45.008Z,102070.45
2018-05-23T21:33:13.093Z,102076.05
2018-05-23T21:35:41.201Z,102075.55
2018-05-23T21:38:09.293Z,102069.39
2018-05-23T21:40:37.377Z,102074.69
2018-05-23T21:56:05.501Z,102096.51
2018-05-23T21:58:33.608Z,102092.67
2018-05-23T22:01:03.093Z,102090.31
2018-05-23T22:03:37.261Z,102086.48
2018-05-23T22:06:10.726Z,102084.84
2018-05-23T22:08:38.851Z,102090.47
2018-05-23T22:13:41.327Z,102090.39
2018-05-23T22:16:09.561Z,102089.33
2018-05-23T22:18:37.656Z,102084.73
2018-05-23T22:21:05.767Z,102091.41
2018-05-23T22:23:33.881Z,102090.15
2018-05-23T22:26:01.961Z,102087.32
2018-05-23T22:28:30.049Z,102090.87
2018-05-23T22:30:58.171Z,102087.25
2018-05-23T22:33:26.278Z,102088.69
2018-05-23T22:35:54.456Z,102087.94
2018-05-23T22:38:22.472Z,102092.24
2018-05-23T22:40:50.571Z,102091.67
2018-05-23T22:43:18.668Z,102085.26
2018-05-23T22:45:46.773Z,102087.98
2018-05-23T22:48:15.222Z,102084.52
2018-05-23T22:50:44.320Z,102084.77
2018-05-23T22:53:12.429Z,102085.98
2018-05-23T22:55:40.525Z,102092.68
2018-05-23T22:58:08.634Z,102086.16
2018-05-23T23:00:36.740Z,102093.97
2018-05-23T23:03:04.842Z,102093.33
2018-05-23T23:05:32.934Z,102095.08
2018-05-23T23:08:01.036Z,102094.26
2018-05-23T23:10:29.192Z,102091.75
2018-05-23T23:12:57.276Z,102091.85
2018-05-23T23:15:25.367Z,102086.12
2018-05-23T23:17:53.468Z,102095.48
2018-05-23T23:20:21.571Z,102095.41
2018-05-23T23:22:49.690Z,102089.36
2018-05-23T23:25:17.809Z,102091.77
2018-05-23T23:27:45.936Z,102089.59
2018-05-23T23:30:14.002Z,102083.94
2018-05-23T23:32:42.154Z,102087.63
2018-05-23T23:35:10.240Z,102079.12
2018-05-23T23:37:38.344Z,102080.80
2018-05-23T23:40:06.436Z,102077.73
2018-05-23T23:42:34.560Z,102081.33
2018-05-23T23:45:02.714Z,102081.39
2018-05-23T23:47:30.908Z,102084.61
2018-05-23T23:49:58.917Z,102075.14
2018-05-23T23:52:27.016Z,102084.84
2018-05-23T23:54:55.099Z,102074.70
2018-05-23T23:57:23.222Z,102071.13
2018-05-23T23:59:51.312Z,102071.13
